createdAt,value
2018-04-27T00:00:44.876Z,6.67
2018-04-27T00:03:14.051Z,8.38
2018-04-27T00:05:42.285Z,9.70
2018-04-27T00:08:12.468Z,6.70
2018-04-27T00:10:40.751Z,10.77
2018-04-27T00:13:08.980Z,7.00
2018-04-27T00:15:37.232Z,11.50
2018-04-27T00:18:05.512Z,10.43
2018-04-27T00:20:33.768Z,12.77
2018-04-27T00:23:02.793Z,11.70
2018-04-27T00:25:32.190Z,10.17
2018-04-27T00:28:01.214Z,11.37
2018-04-27T00:30:29.472Z,10.00
2018-04-27T00:32:58.538Z,10.20
2018-04-27T00:35:26.796Z,9.17
2018-04-27T00:37:55.088Z,10.23
2018-04-27T00:40:24.127Z,11.13
2018-04-27T00:42:52.442Z,10.07
2018-04-27T00:45:20.671Z,9.53
2018-04-27T00:47:48.908Z,9.27
2018-04-27T00:50:18.500Z,8.30
2018-04-27T00:52:58.854Z,8.20
2018-04-27T00:55:27.132Z,14.00
2018-04-27T00:57:55.398Z,11.90
2018-04-27T01:00:23.685Z,13.10
2018-04-27T01:02:54.383Z,8.97
2018-04-27T01:05:22.681Z,9.00
2018-04-27T01:07:51.726Z,11.43
2018-04-27T01:10:20.731Z,12.80
2018-04-27T01:12:49.003Z,10.23
2018-04-27T01:15:17.261Z,11.60
2018-04-27T01:17:46.296Z,10.77
2018-04-27T01:20:15.742Z,13.50
2018-04-27T01:22:45.511Z,11.10
2018-04-27T01:25:13.790Z,8.93
2018-04-27T01:27:42.134Z,14.77
2018-04-27T01:30:11.215Z,16.20
2018-04-27T01:32:39.556Z,10.67
2018-04-27T01:35:07.811Z,16.83
2018-04-27T01:37:36.074Z,9.90
2018-04-27T01:40:04.350Z,12.13
2018-04-27T01:42:32.563Z,10.47
2018-04-27T01:45:00.940Z,12.73
2018-04-27T01:47:29.196Z,11.20
2018-04-27T01:49:57.491Z,15.17
2018-04-27T01:52:25.753Z,15.27
2018-04-27T01:54:54.021Z,10.27
2018-04-27T01:57:22.295Z,10.80
2018-04-27T01:59:51.821Z,12.73
2018-04-27T02:02:20.052Z,12.60
2018-04-27T02:04:48.353Z,10.37
2018-04-27T02:07:16.599Z,13.37
2018-04-27T02:09:44.901Z,11.30
2018-04-27T02:12:13.149Z,8.50
2018-04-27T02:14:41.403Z,11.30
2018-04-27T02:17:09.669Z,13.07
2018-04-27T02:19:37.941Z,13.30
2018-04-27T02:22:06.261Z,11.23
2018-04-27T02:24:34.491Z,15.17
2018-04-27T02:27:02.785Z,12.43
2018-04-27T02:29:31.061Z,12.90
2018-04-27T02:32:00.096Z,12.97
2018-04-27T02:34:28.362Z,11.47
2018-04-27T02:36:56.661Z,14.07
2018-04-27T02:39:24.934Z,15.47
2018-04-27T02:41:53.178Z,14.53
2018-04-27T02:44:21.432Z,13.43
2018-04-27T02:46:51.376Z,12.47
2018-04-27T02:49:19.658Z,13.03
2018-04-27T02:51:47.923Z,15.23
2018-04-27T02:54:16.209Z,13.53
2018-04-27T02:56:44.485Z,13.67
2018-04-27T02:59:12.736Z,11.30
2018-04-27T03:01:41.026Z,12.67
2018-04-27T03:04:09.293Z,11.03
2018-04-27T03:06:37.554Z,15.10
2018-04-27T03:09:06.577Z,14.17
2018-04-27T03:11:34.847Z,13.00
2018-04-27T03:14:03.159Z,18.63
2018-04-27T03:16:31.420Z,14.20
2018-04-27T03:18:59.683Z,14.73
2018-04-27T03:21:28.092Z,19.10
2018-04-27T03:23:56.533Z,14.13
2018-04-27T03:26:24.682Z,14.80
2018-04-27T03:28:53.691Z,11.27
2018-04-27T03:31:22.742Z,13.80
2018-04-27T03:33:50.982Z,15.90
2018-04-27T03:36:19.265Z,17.43
2018-04-27T03:38:47.550Z,12.90
2018-04-27T03:41:15.814Z,15.30
2018-04-27T03:43:44.086Z,15.63
2018-04-27T03:46:13.316Z,13.63
2018-04-27T03:48:41.562Z,14.63
2018-04-27T03:51:09.828Z,14.63
2018-04-27T03:53:38.077Z,15.93
2018-04-27T03:56:07.064Z,13.10
2018-04-27T03:58:36.132Z,12.03
2018-04-27T04:01:16.185Z,11.80
2018-04-27T04:03:56.413Z,16.05
2018-04-27T04:06:24.686Z,17.13
2018-04-27T04:08:54.136Z,13.60
2018-04-27T04:11:22.399Z,16.03
2018-04-27T04:13:50.644Z,10.37
2018-04-27T04:16:18.921Z,13.23
2018-04-27T04:18:47.194Z,11.33
2018-04-27T04:21:15.446Z,14.13
2018-04-27T04:23:44.900Z,12.43
2018-04-27T04:26:13.184Z,10.23
2018-04-27T04:28:41.441Z,14.50
2018-04-27T04:31:09.697Z,11.23
2018-04-27T04:33:37.951Z,13.88
2018-04-27T04:36:06.288Z,10.87
2018-04-27T04:38:34.526Z,13.43
2018-04-27T04:41:03.548Z,12.97
2018-04-27T04:43:31.801Z,14.03
2018-04-27T04:46:00.105Z,13.50
2018-04-27T04:48:28.389Z,12.93
2018-04-27T04:50:56.665Z,11.13
2018-04-27T04:53:24.916Z,12.17
2018-04-27T04:55:53.939Z,10.10
2018-04-27T04:58:22.176Z,14.63
2018-04-27T05:00:50.444Z,12.57
2018-04-27T05:03:19.842Z,9.30
2018-04-27T05:05:48.060Z,9.50
2018-04-27T05:08:16.373Z,9.13
2018-04-27T05:10:45.392Z,9.23
2018-04-27T05:13:13.712Z,8.83
2018-04-27T05:15:41.985Z,7.53
2018-04-27T05:18:20.969Z,11.73
2018-04-27T05:20:49.227Z,9.10
2018-04-27T05:23:17.469Z,9.53
2018-04-27T05:25:45.739Z,9.70
2018-04-27T05:28:14.054Z,13.43
2018-04-27T05:30:43.117Z,8.87
2018-04-27T05:33:11.382Z,8.00
2018-04-27T05:35:39.652Z,8.37
2018-04-27T05:38:07.932Z,11.50
2018-04-27T05:40:36.234Z,8.37
2018-04-27T05:43:04.485Z,8.50
2018-04-27T05:45:32.861Z,9.37
2018-04-27T05:48:01.132Z,7.43
2018-04-27T05:50:30.237Z,10.98
2018-04-27T05:53:00.048Z,7.90
2018-04-27T05:55:28.428Z,8.60
2018-04-27T05:57:56.792Z,13.68
2018-04-27T06:00:25.282Z,8.00
2018-04-27T06:02:53.528Z,8.30
2018-04-27T06:05:21.802Z,10.75
2018-04-27T06:07:50.067Z,12.15
2018-04-27T06:10:18.343Z,9.52
2018-04-27T06:12:46.629Z,10.27
2018-04-27T06:15:14.947Z,9.02
2018-04-27T06:17:43.259Z,13.88
2018-04-27T06:20:11.520Z,12.73
2018-04-27T06:22:40.545Z,9.80
2018-04-27T06:25:08.877Z,11.95
2018-04-27T06:27:37.150Z,9.57
2018-04-27T06:30:05.435Z,9.45
2018-04-27T06:32:34.508Z,11.73
2018-04-27T06:35:03.589Z,11.98
2018-04-27T06:37:31.855Z,14.98
2018-04-27T06:40:00.831Z,11.15
2018-04-27T06:42:29.111Z,14.18
2018-04-27T06:44:57.381Z,10.77
2018-04-27T06:47:25.701Z,10.93
2018-04-27T06:49:53.960Z,13.52
2018-04-27T06:52:22.251Z,15.68
2018-04-27T06:54:50.537Z,11.88
2018-04-27T06:57:18.822Z,10.15
2018-04-27T06:59:48.617Z,13.77
2018-04-27T07:02:16.869Z,11.57
2018-04-27T07:04:45.146Z,11.10
2018-04-27T07:07:13.412Z,13.85
2018-04-27T07:09:41.684Z,10.82
2018-04-27T07:12:10.016Z,10.65
2018-04-27T07:14:39.059Z,11.32
2018-04-27T07:17:07.382Z,12.13
2018-04-27T07:19:35.621Z,10.10
2018-04-27T07:22:04.027Z,11.98
2018-04-27T07:24:32.308Z,14.30
2018-04-27T07:27:00.583Z,8.63
2018-04-27T07:29:28.849Z,12.20
2018-04-27T07:31:57.107Z,8.80
2018-04-27T07:34:25.402Z,9.02
2018-04-27T07:36:54.913Z,12.13
2018-04-27T07:39:23.957Z,13.40
2018-04-27T07:41:52.218Z,12.65
2018-04-27T07:44:20.513Z,12.80
2018-04-27T07:46:48.940Z,14.03
2018-04-27T07:49:17.236Z,11.77
2018-04-27T07:51:46.294Z,11.48
2018-04-27T07:54:14.687Z,13.02
2018-04-27T07:56:42.927Z,12.73
2018-04-27T07:59:11.197Z,14.02
2018-04-27T08:01:39.481Z,16.50
2018-04-27T08:04:08.913Z,14.38
2018-04-27T08:06:37.291Z,13.43
2018-04-27T08:09:06.287Z,14.15
2018-04-27T08:11:34.556Z,13.88
2018-04-27T08:14:02.869Z,13.15
2018-04-27T08:16:31.129Z,15.60
2018-04-27T08:19:00.204Z,15.77
2018-04-27T08:21:28.492Z,16.03
2018-04-27T08:23:56.754Z,13.67
2018-04-27T08:26:27.398Z,15.87
2018-04-27T08:28:55.658Z,17.13
2018-04-27T08:31:23.979Z,12.90
2018-04-27T08:33:52.255Z,13.90
2018-04-27T08:36:21.288Z,19.43
2018-04-27T08:38:49.564Z,15.97
2018-04-27T08:41:17.839Z,14.47
2018-04-27T08:43:46.218Z,16.27
2018-04-27T08:46:14.411Z,15.33
2018-04-27T08:48:42.703Z,15.93
2018-04-27T08:51:10.964Z,14.13
2018-04-27T08:53:39.224Z,14.07
2018-04-27T08:56:07.521Z,13.13
2018-04-27T08:58:35.776Z,13.63
2018-04-27T09:01:04.179Z,12.87
2018-04-27T09:03:32.426Z,12.13
2018-04-27T09:06:00.725Z,14.47
2018-04-27T09:08:29.791Z,12.17
2018-04-27T09:10:58.077Z,11.90
2018-04-27T09:13:26.328Z,18.65
2018-04-27T09:15:54.601Z,13.33
2018-04-27T09:18:22.885Z,12.70
2018-04-27T09:20:51.142Z,11.43
2018-04-27T09:23:19.420Z,12.30
2018-04-27T09:25:47.686Z,11.03
2018-04-27T09:28:16.704Z,11.50
2018-04-27T09:30:44.999Z,13.47
2018-04-27T09:33:14.057Z,8.07
2018-04-27T09:35:43.068Z,13.50
2018-04-27T09:38:11.342Z,9.95
2018-04-27T09:40:39.607Z,11.17
2018-04-27T09:43:07.876Z,10.87
2018-04-27T09:45:36.153Z,11.12
2018-04-27T09:48:04.396Z,9.23
2018-04-27T09:50:32.635Z,7.78
2018-04-27T09:53:00.899Z,8.57
2018-04-27T09:55:29.191Z,7.82
2018-04-27T09:57:57.467Z,7.80
2018-04-27T10:00:25.713Z,6.75
2018-04-27T10:02:54.081Z,9.20
2018-04-27T10:05:22.281Z,10.57
2018-04-27T10:07:50.571Z,12.40
2018-04-27T10:10:18.952Z,8.38
2018-04-27T10:12:47.311Z,10.48
2018-04-27T10:15:15.592Z,9.60
2018-04-27T10:17:44.007Z,7.72
2018-04-27T10:20:12.323Z,9.20
2018-04-27T10:22:40.585Z,10.23
2018-04-27T10:25:09.593Z,8.75
2018-04-27T10:27:37.896Z,11.43
2018-04-27T10:30:06.181Z,9.97
2018-04-27T10:32:34.429Z,8.38
2018-04-27T10:35:02.698Z,8.23
2018-04-27T10:37:31.774Z,11.70
2018-04-27T10:40:00.042Z,12.15
2018-04-27T10:42:29.074Z,11.07
2018-04-27T10:44:57.475Z,11.10
2018-04-27T10:47:25.728Z,11.25
2018-04-27T10:49:53.976Z,12.77
2018-04-27T10:52:23.168Z,10.13
2018-04-27T10:54:51.547Z,11.75
2018-04-27T10:57:19.886Z,10.80
2018-04-27T10:59:48.181Z,12.80
2018-04-27T11:02:16.437Z,11.20
2018-04-27T11:04:44.697Z,8.15
2018-04-27T11:07:12.989Z,9.55
2018-04-27T11:09:41.303Z,13.18
2018-04-27T11:12:09.561Z,9.93
2018-04-27T11:14:37.858Z,11.35
2018-04-27T11:17:06.272Z,9.95
2018-04-27T11:19:34.363Z,12.02
2018-04-27T11:22:02.643Z,9.48
2018-04-27T11:24:30.921Z,8.32
2018-04-27T11:26:59.144Z,9.67
2018-04-27T11:29:28.203Z,10.95
2018-04-27T11:31:56.465Z,10.65
2018-04-27T11:34:24.757Z,9.65
2018-04-27T11:36:53.043Z,8.53
2018-04-27T11:39:21.294Z,10.55
2018-04-27T11:41:49.560Z,8.50
2018-04-27T11:44:17.831Z,11.77
2018-04-27T11:46:46.162Z,9.73
2018-04-27T11:49:14.449Z,10.85
2018-04-27T11:51:43.489Z,10.70
2018-04-27T11:54:11.761Z,10.25
2018-04-27T11:56:40.056Z,10.15
2018-04-27T11:59:08.315Z,9.50
2018-04-27T12:01:36.698Z,8.68
2018-04-27T12:04:05.678Z,6.90
2018-04-27T12:06:33.943Z,8.05
2018-04-27T12:09:02.235Z,8.43
2018-04-27T12:11:31.663Z,7.93
2018-04-27T12:13:59.989Z,9.07
2018-04-27T12:16:28.289Z,8.43
2018-04-27T12:18:56.590Z,9.10
2018-04-27T12:21:24.866Z,10.25
2018-04-27T12:23:53.161Z,8.95
2018-04-27T12:26:21.452Z,9.02
2018-04-27T12:28:50.520Z,10.05
2018-04-27T12:31:18.796Z,9.10
2018-04-27T12:33:47.074Z,9.48
2018-04-27T12:36:15.340Z,10.27
2018-04-27T12:38:43.622Z,6.55
2018-04-27T12:41:11.916Z,7.85
2018-04-27T12:43:40.197Z,9.07
2018-04-27T12:46:08.521Z,6.57
2018-04-27T12:48:37.965Z,9.68
2018-04-27T12:51:06.204Z,11.30
2018-04-27T12:53:34.574Z,7.30
2018-04-27T12:56:02.878Z,8.43
2018-04-27T12:58:32.263Z,6.95
2018-04-27T13:01:00.533Z,7.78
2018-04-27T13:03:28.786Z,8.02
2018-04-27T13:05:57.248Z,7.93
2018-04-27T13:08:26.295Z,7.43
2018-04-27T13:10:54.552Z,7.75
2018-04-27T13:13:22.850Z,8.70
2018-04-27T13:15:51.116Z,8.77
2018-04-27T13:18:19.414Z,7.43
2018-04-27T13:20:47.710Z,8.93
2018-04-27T13:23:16.744Z,7.82
2018-04-27T13:25:45.050Z,8.68
2018-04-27T13:28:13.321Z,8.90
2018-04-27T13:30:42.865Z,8.95
2018-04-27T13:33:11.096Z,9.63
2018-04-27T13:35:39.353Z,7.33
2018-04-27T13:38:07.607Z,7.30
2018-04-27T13:40:35.906Z,8.23
2018-04-27T13:43:04.149Z,8.30
2018-04-27T13:45:33.266Z,9.00
2018-04-27T13:48:01.494Z,7.10
2018-04-27T13:50:29.794Z,8.88
2018-04-27T13:52:58.813Z,7.90
2018-04-27T13:55:27.082Z,9.65
2018-04-27T13:57:55.381Z,6.35
2018-04-27T14:00:23.690Z,8.52
2018-04-27T14:02:52.009Z,7.03
2018-04-27T14:05:20.246Z,9.88
2018-04-27T14:07:48.498Z,7.65
2018-04-27T14:10:16.832Z,8.50
2018-04-27T14:12:45.859Z,6.78
2018-04-27T14:15:14.118Z,8.02
2018-04-27T14:17:42.374Z,8.10
2018-04-27T14:20:12.568Z,8.13
2018-04-27T14:22:40.832Z,6.62
2018-04-27T14:25:09.097Z,9.15
2018-04-27T14:27:37.389Z,7.10
2018-04-27T14:30:05.665Z,7.87
2018-04-27T14:32:35.004Z,8.40
2018-04-27T14:35:03.264Z,8.95
2018-04-27T14:37:32.369Z,8.80
2018-04-27T14:40:01.400Z,8.82
2018-04-27T14:42:29.695Z,9.32
2018-04-27T14:44:57.941Z,7.87
2018-04-27T14:47:26.240Z,7.30
2018-04-27T14:49:54.493Z,9.02
2018-04-27T14:52:22.773Z,9.85
2018-04-27T14:54:51.035Z,9.50
2018-04-27T14:57:21.307Z,9.35
2018-04-27T14:59:49.708Z,7.40
2018-04-27T15:02:17.959Z,7.55
2018-04-27T15:04:50.745Z,10.30
2018-04-27T15:07:18.995Z,9.38
2018-04-27T15:09:47.249Z,8.82
2018-04-27T15:12:15.495Z,6.60
2018-04-27T15:14:44.597Z,7.15
2018-04-27T15:17:14.897Z,5.62
2018-04-27T15:19:43.147Z,5.70
2018-04-27T15:22:11.438Z,7.93
2018-04-27T15:24:39.668Z,8.95
2018-04-27T15:27:09.276Z,7.25
2018-04-27T15:29:38.346Z,7.10
2018-04-27T15:32:08.336Z,8.95
2018-04-27T15:34:36.566Z,6.95
2018-04-27T15:37:04.881Z,7.10
2018-04-27T15:39:33.479Z,8.30
2018-04-27T15:42:01.704Z,7.57
2018-04-27T15:44:29.981Z,8.20
2018-04-27T15:46:58.274Z,8.25
2018-04-27T15:49:26.579Z,7.00
2018-04-27T15:51:54.853Z,7.43
2018-04-27T15:54:23.150Z,9.43
2018-04-27T15:56:52.187Z,8.45
2018-04-27T15:59:20.451Z,5.85
2018-04-27T16:01:48.728Z,6.72
2018-04-27T16:04:17.004Z,8.40
2018-04-27T16:06:45.254Z,5.90
2018-04-27T16:09:15.219Z,7.60
2018-04-27T16:11:43.513Z,7.78
2018-04-27T16:14:11.789Z,6.62
2018-04-27T16:16:40.070Z,7.10
2018-04-27T16:19:08.585Z,9.70
2018-04-27T16:21:37.641Z,9.10
2018-04-27T16:24:05.930Z,8.10
2018-04-27T16:26:34.202Z,6.12
2018-04-27T16:29:02.511Z,8.38
2018-04-27T16:31:31.685Z,7.12
2018-04-27T16:34:00.019Z,5.95
2018-04-27T16:36:28.296Z,6.12
2018-04-27T16:38:56.545Z,8.10
2018-04-27T16:41:24.822Z,7.43
2018-04-27T16:43:53.061Z,7.50
2018-04-27T16:46:21.361Z,7.32
2018-04-27T16:48:50.452Z,7.05
2018-04-27T16:51:19.463Z,7.28
2018-04-27T16:53:47.754Z,7.82
2018-04-27T16:56:16.037Z,6.43
2018-04-27T16:58:44.282Z,8.05
2018-04-27T17:01:12.559Z,5.40
2018-04-27T17:03:40.897Z,8.63
2018-04-27T17:06:09.164Z,5.60
2018-04-27T17:08:37.413Z,6.73
2018-04-27T17:11:05.704Z,6.60
2018-04-27T17:13:34.051Z,8.73
2018-04-27T17:16:02.251Z,8.83
2018-04-27T17:18:30.507Z,4.93
2018-04-27T17:20:58.784Z,5.80
2018-04-27T17:23:27.134Z,4.23
2018-04-27T17:25:55.403Z,4.87
2018-04-27T17:28:24.449Z,5.33
2018-04-27T17:30:52.757Z,6.73
2018-04-27T17:33:21.042Z,6.47
2018-04-27T17:35:49.419Z,5.07
2018-04-27T17:38:17.721Z,7.03
2018-04-27T17:40:46.751Z,4.53
2018-04-27T17:43:15.113Z,4.40
2018-04-27T17:45:43.478Z,3.57
2018-04-27T17:48:11.734Z,4.73
2018-04-27T17:50:39.952Z,3.33
2018-04-27T17:53:08.268Z,3.53
2018-04-27T17:55:36.565Z,6.40
2018-04-27T17:58:05.645Z,4.43
2018-04-27T18:00:35.437Z,3.73
2018-04-27T18:03:04.517Z,6.80
2018-04-27T18:05:32.787Z,3.50
2018-04-27T18:08:01.098Z,5.83
2018-04-27T18:10:29.464Z,2.80
2018-04-27T18:12:57.756Z,4.37
2018-04-27T18:15:26.060Z,3.27
2018-04-27T18:17:56.041Z,3.90
2018-04-27T18:20:24.329Z,3.70
2018-04-27T18:22:52.635Z,3.63
2018-04-27T18:25:21.891Z,4.67
2018-04-27T18:27:51.174Z,4.23
2018-04-27T18:30:19.431Z,4.83
2018-04-27T18:32:48.497Z,4.00
2018-04-27T18:35:18.398Z,4.20
2018-04-27T18:37:46.640Z,4.17
2018-04-27T18:40:15.810Z,4.47
2018-04-27T18:42:44.134Z,4.73
2018-04-27T18:45:12.404Z,6.57
2018-04-27T18:47:40.708Z,8.07
2018-04-27T18:50:08.996Z,9.75
2018-04-27T18:52:38.024Z,8.70
2018-04-27T18:55:07.862Z,8.70
2018-04-27T18:57:36.144Z,11.00
2018-04-27T19:00:04.444Z,7.07
2018-04-27T19:02:33.515Z,7.57
2018-04-27T19:05:02.590Z,7.10
2018-04-27T19:07:30.920Z,6.63
2018-04-27T19:09:59.365Z,6.67
2018-04-27T19:12:27.642Z,5.50
2018-04-27T19:14:56.047Z,5.62
2018-04-27T19:17:25.098Z,5.73
2018-04-27T19:19:54.153Z,5.22
2018-04-27T19:22:24.804Z,5.87
2018-04-27T19:24:53.086Z,7.03
2018-04-27T19:27:21.342Z,6.93
2018-04-27T19:29:49.667Z,6.40
2018-04-27T19:32:17.972Z,5.70
2018-04-27T19:34:46.994Z,7.97
2018-04-27T19:37:15.319Z,7.03
2018-04-27T19:39:43.648Z,6.17
2018-04-27T19:42:12.113Z,6.23
2018-04-27T19:44:40.433Z,6.77
2018-04-27T19:47:08.738Z,7.10
2018-04-27T19:49:37.033Z,6.40
2018-04-27T19:52:06.197Z,12.67
2018-04-27T19:54:34.517Z,6.27
2018-04-27T19:57:03.169Z,5.50
2018-04-27T19:59:32.140Z,7.00
2018-04-27T20:02:00.574Z,6.97
2018-04-27T20:04:28.842Z,6.53
2018-04-27T20:06:57.893Z,7.17
2018-04-27T20:09:26.214Z,7.70
2018-04-27T20:11:54.597Z,7.90
2018-04-27T20:14:31.546Z,6.20
2018-04-27T20:17:01.697Z,7.20
2018-04-27T20:19:30.743Z,5.87
2018-04-27T20:25:01.285Z,6.47
2018-04-27T20:27:31.919Z,6.07
2018-04-27T20:30:05.900Z,6.30
2018-04-27T20:32:34.250Z,6.60
2018-04-27T20:35:13.893Z,9.37
2018-04-27T20:37:42.961Z,6.37
2018-04-27T20:40:12.084Z,5.63
2018-04-27T20:42:41.146Z,5.17
2018-04-27T20:45:23.175Z,7.10
2018-04-27T20:47:52.306Z,5.77
2018-04-27T20:50:27.247Z,6.07
2018-04-27T20:52:57.223Z,6.00
2018-04-27T20:55:26.258Z,5.60
2018-04-27T20:57:54.556Z,8.00
2018-04-27T21:00:24.276Z,5.63
2018-04-27T21:02:52.556Z,6.93
2018-04-27T21:05:20.860Z,5.77
2018-04-27T21:07:49.131Z,7.83
2018-04-27T21:10:18.977Z,7.80
2018-04-27T21:12:47.322Z,6.37
2018-04-27T21:15:16.378Z,6.03
2018-04-27T21:17:49.089Z,7.13
2018-04-27T21:20:18.907Z,6.20
2018-04-27T21:22:49.031Z,7.27
2018-04-27T21:28:32.581Z,5.73
2018-04-27T21:31:01.662Z,5.82
2018-04-27T21:33:32.409Z,6.40
2018-04-27T21:36:02.974Z,7.22
2018-04-27T21:38:37.188Z,5.50
2018-04-27T21:44:10.822Z,8.07
2018-04-27T21:46:39.194Z,6.78
2018-04-27T21:49:13.181Z,7.80
2018-04-27T21:51:41.531Z,8.40
2018-04-27T21:54:10.707Z,7.60
2018-04-27T21:56:50.770Z,8.10
2018-04-27T21:59:20.493Z,11.17
2018-04-27T22:01:49.519Z,10.33
2018-04-27T22:04:17.839Z,7.90
2018-04-27T22:06:46.150Z,9.10
2018-04-27T22:09:15.242Z,8.57
2018-04-27T22:11:47.012Z,9.70
2018-04-27T22:14:15.288Z,8.37
2018-04-27T22:16:55.535Z,8.97
2018-04-27T22:19:25.365Z,9.57
2018-04-27T22:21:53.631Z,8.47
2018-04-27T22:24:22.821Z,11.30
2018-04-27T22:26:54.772Z,10.27
2018-04-27T22:29:24.648Z,9.17
2018-04-27T22:32:10.493Z,9.87
2018-04-27T22:34:48.629Z,8.57
2018-04-27T22:37:17.793Z,11.23
2018-04-27T22:39:58.809Z,10.10
2018-04-27T22:42:27.089Z,12.20
2018-04-27T22:44:59.070Z,11.20
2018-04-27T22:47:28.100Z,13.27
2018-04-27T22:49:58.044Z,11.60
2018-04-27T22:52:32.039Z,12.13
2018-04-27T22:55:00.343Z,12.33
2018-04-27T22:57:31.242Z,13.17
2018-04-27T23:00:01.019Z,14.87
2018-04-27T23:02:29.292Z,13.63
2018-04-27T23:05:00.939Z,13.70
2018-04-27T23:07:32.141Z,13.50
2018-04-27T23:10:00.475Z,13.63
2018-04-27T23:12:41.421Z,15.77
2018-04-27T23:15:10.311Z,14.50
2018-04-27T23:17:38.555Z,14.23
2018-04-27T23:20:10.751Z,14.43
2018-04-27T23:22:41.033Z,14.43
2018-04-27T23:25:10.785Z,15.30
2018-04-27T23:27:39.064Z,14.70
2018-04-27T23:30:07.353Z,14.27
2018-04-27T23:32:37.945Z,15.57
2018-04-27T23:35:07.030Z,14.43
2018-04-27T23:37:35.308Z,14.23
2018-04-27T23:40:03.590Z,15.05
2018-04-27T23:42:31.856Z,15.23
2018-04-27T23:45:00.132Z,16.00
2018-04-27T23:47:29.548Z,14.53
2018-04-27T23:49:57.861Z,15.67
2018-04-27T23:52:26.125Z,16.10
2018-04-27T23:54:54.490Z,14.60
2018-04-27T23:57:23.579Z,14.63
2018-04-27T23:59:53.578Z,15.00
